Time;durP1;ratioP1;P1;durP2;ratioP2;P2;SDS_P1;SDS_P2;PMS_P1;PMS_P2;Temp;Humidity;BMP_temperature;BMP_pressure;BME280_temperature;BME280_humidity;BME280_pressure;Samples;Min_cycle;Max_cycle;Signal;HPM_P1;HPM_P2
2021/12/03 00:01:27;;;;;;;33.00;18.43;;;4.10;99.90;;;;;;5091011;28;20204;-56
2021/12/03 00:03:54;;;;;;;33.50;19.03;;;4.10;99.90;;;;;;5071921;28;20205;-56
2021/12/03 00:06:21;;;;;;;36.07;20.83;;;4.10;99.90;;;;;;5071925;28;20211;-55
2021/12/03 00:08:48;;;;;;;36.67;21.40;;;4.10;99.90;;;;;;5078451;28;20290;-53
2021/12/03 00:11:17;;;;;;;34.57;20.57;;;4.00;99.90;;;;;;5091984;28;20208;-56
2021/12/03 00:13:44;;;;;;;36.23;22.53;;;4.00;99.90;;;;;;5092012;28;20232;-55
2021/12/03 00:16:12;;;;;;;37.80;21.30;;;4.00;99.90;;;;;;5092273;28;20203;-55
2021/12/03 00:18:39;;;;;;;40.80;24.70;;;4.00;99.90;;;;;;5092096;28;20211;-54
2021/12/03 00:21:08;;;;;;;36.63;22.53;;;4.00;99.90;;;;;;5091768;28;20204;-56
2021/12/03 00:23:36;;;;;;;38.20;22.20;;;4.00;99.90;;;;;;5091863;28;20237;-58
2021/12/03 00:26:05;;;;;;;37.37;21.60;;;3.90;99.90;;;;;;5091865;28;20207;-56
2021/12/03 00:28:34;;;;;;;34.13;20.50;;;4.00;99.90;;;;;;5091505;28;20211;-57
2021/12/03 00:31:02;;;;;;;34.93;19.90;;;3.90;99.90;;;;;;5091684;28;20223;-57
2021/12/03 00:33:30;;;;;;;41.53;22.27;;;3.90;99.90;;;;;;5091796;28;20208;-56
2021/12/03 00:35:58;;;;;;;39.23;23.87;;;3.80;99.90;;;;;;5091561;28;20755;-59
2021/12/03 00:38:26;;;;;;;41.30;24.23;;;3.80;99.90;;;;;;5091693;28;20211;-59
2021/12/03 00:40:53;;;;;;;39.80;24.53;;;3.80;99.90;;;;;;5092084;28;20227;-58
2021/12/03 00:43:19;;;;;;;41.57;25.30;;;3.70;99.90;;;;;;5092022;28;20661;-58
2021/12/03 00:45:48;;;;;;;41.60;25.20;;;3.70;99.90;;;;;;5091894;28;20204;-57
2021/12/03 00:48:14;;;;;;;40.57;24.40;;;3.70;99.90;;;;;;5092059;28;20207;-57
2021/12/03 00:50:41;;;;;;;42.03;22.90;;;3.70;99.90;;;;;;5091945;28;20200;-60
2021/12/03 00:53:08;;;;;;;40.17;24.17;;;3.70;99.90;;;;;;5091948;28;20200;-59
2021/12/03 00:55:36;;;;;;;37.63;21.00;;;3.70;99.90;;;;;;5091583;28;20736;-59
2021/12/03 00:58:03;;;;;;;39.57;21.80;;;3.70;99.90;;;;;;5092004;28;20565;-58
2021/12/03 01:00:33;;;;;;;37.10;20.90;;;3.70;99.90;;;;;;5091583;28;20208;-60
2021/12/03 01:03:02;;;;;;;35.83;20.50;;;3.80;99.90;;;;;;5091947;28;20192;-57
2021/12/03 01:05:30;;;;;;;40.77;22.50;;;3.80;99.90;;;;;;5091271;28;20572;-58
2021/12/03 01:07:57;;;;;;;41.03;23.07;;;3.90;99.90;;;;;;5091207;28;20200;-56
2021/12/03 01:10:25;;;;;;;40.60;23.30;;;3.90;99.90;;;;;;5093285;28;20223;-58
2021/12/03 01:12:52;;;;;;;39.93;22.03;;;3.90;99.90;;;;;;5091630;28;20308;-60
2021/12/03 01:15:25;;;;;;;32.93;19.63;;;3.90;99.90;;;;;;5091229;28;20227;-59
2021/12/03 01:17:52;;;;;;;33.60;20.70;;;3.90;99.90;;;;;;5091452;28;20188;-58
2021/12/03 01:20:22;;;;;;;33.97;19.87;;;3.90;99.90;;;;;;5091436;28;20595;-57
2021/12/03 01:22:50;;;;;;;38.03;22.83;;;4.00;99.90;;;;;;5091385;28;20216;-58
2021/12/03 01:25:19;;;;;;;33.07;20.33;;;4.00;99.90;;;;;;5091430;28;20397;-58
2021/12/03 01:27:47;;;;;;;35.77;22.83;;;3.90;99.90;;;;;;5091481;28;20654;-55
2021/12/03 01:30:17;;;;;;;36.70;21.93;;;3.90;99.90;;;;;;5091203;28;20688;-59
2021/12/03 01:32:45;;;;;;;36.93;21.93;;;3.90;99.90;;;;;;5091585;28;20208;-57
2021/12/03 01:35:12;;;;;;;38.03;22.20;;;3.90;99.90;;;;;;5090919;28;20239;-57
2021/12/03 01:37:42;;;;;;;36.60;20.23;;;3.90;99.90;;;;;;5090957;28;20208;-55
2021/12/03 01:40:12;;;;;;;38.37;19.20;;;3.80;99.90;;;;;;5091148;28;20212;-56
2021/12/03 01:42:41;;;;;;;32.23;18.83;;;3.80;99.90;;;;;;5091368;28;20195;-56
2021/12/03 01:45:10;;;;;;;38.77;23.50;;;3.90;99.90;;;;;;5091589;28;20298;-58
2021/12/03 01:47:37;;;;;;;40.63;21.63;;;3.90;99.90;;;;;;5091399;28;20211;-56
2021/12/03 01:50:04;;;;;;;33.80;20.23;;;3.90;99.90;;;;;;5094040;28;20204;-57
2021/12/03 01:52:31;;;;;;;33.40;19.90;;;3.90;99.90;;;;;;5094884;28;20212;-58
2021/12/03 01:55:01;;;;;;;41.57;22.23;;;3.90;99.90;;;;;;5094939;28;20593;-57
2021/12/03 01:57:28;;;;;;;40.20;21.70;;;4.00;99.90;;;;;;5094664;28;20192;-55
2021/12/03 01:59:55;;;;;;;40.20;22.37;;;4.00;99.90;;;;;;5091185;28;20214;-58
2021/12/03 02:02:22;;;;;;;51.57;26.37;;;4.10;99.90;;;;;;5092835;28;20200;-54
2021/12/03 02:04:49;;;;;;;48.27;24.57;;;4.10;99.90;;;;;;5094170;28;20695;-54
2021/12/03 02:07:16;;;;;;;50.13;26.03;;;4.10;99.90;;;;;;5093542;28;20234;-53
2021/12/03 02:09:43;;;;;;;50.80;25.77;;;4.10;99.90;;;;;;5093592;28;20192;-55
2021/12/03 02:12:11;;;;;;;49.90;25.43;;;4.00;99.90;;;;;;5093756;28;20721;-56
2021/12/03 02:14:38;;;;;;;46.37;26.10;;;4.00;99.90;;;;;;5093809;28;20315;-57
2021/12/03 02:17:05;;;;;;;50.40;25.97;;;4.00;99.90;;;;;;5094494;28;20197;-58
2021/12/03 02:19:34;;;;;;;46.63;22.97;;;4.00;99.90;;;;;;5093849;28;20228;-57
2021/12/03 02:22:02;;;;;;;46.03;23.80;;;4.00;99.90;;;;;;5094301;28;20200;-55
2021/12/03 02:24:29;;;;;;;46.60;24.37;;;4.10;99.90;;;;;;5094092;28;20204;-55
2021/12/03 02:26:56;;;;;;;43.87;23.87;;;4.10;99.90;;;;;;5094239;28;20230;-56
2021/12/03 02:29:23;;;;;;;44.93;24.70;;;4.10;99.90;;;;;;5093960;28;20200;-57
2021/12/03 02:31:51;;;;;;;46.67;24.63;;;4.20;99.90;;;;;;5094112;28;20561;-58
2021/12/03 02:34:18;;;;;;;42.53;23.80;;;4.20;99.90;;;;;;5093616;28;20614;-59
2021/12/03 02:36:45;;;;;;;45.53;24.37;;;4.20;99.90;;;;;;5093856;28;20188;-58
2021/12/03 02:39:13;;;;;;;45.70;26.73;;;4.10;99.90;;;;;;5093778;28;20554;-57
2021/12/03 02:41:40;;;;;;;54.30;30.93;;;4.20;99.90;;;;;;5093686;28;20210;-57
2021/12/03 02:44:06;;;;;;;65.57;34.57;;;4.10;99.90;;;;;;5093696;28;20666;-55
2021/12/03 02:46:33;;;;;;;55.40;31.53;;;4.10;99.90;;;;;;5093445;28;20212;-55
2021/12/03 02:49:00;;;;;;;47.40;26.43;;;4.10;99.90;;;;;;5093759;28;20565;-55
2021/12/03 02:51:27;;;;;;;41.70;23.67;;;4.10;99.90;;;;;;5093805;28;20211;-57
2021/12/03 02:53:54;;;;;;;36.83;21.87;;;4.10;99.90;;;;;;5093666;28;20211;-55
2021/12/03 02:56:22;;;;;;;35.57;20.83;;;4.10;99.90;;;;;;5093693;28;20224;-58
2021/12/03 02:58:49;;;;;;;35.87;21.63;;;4.20;99.90;;;;;;5092076;28;20571;-57
2021/12/03 03:01:16;;;;;;;32.83;21.00;;;4.10;99.90;;;;;;5093192;28;20204;-55
2021/12/03 03:03:42;;;;;;;36.60;20.83;;;4.10;99.90;;;;;;5093313;28;20207;-55
2021/12/03 03:06:09;;;;;;;32.40;19.70;;;3.90;99.90;;;;;;5093343;28;20204;-56
2021/12/03 03:08:39;;;;;;;33.33;21.90;;;3.90;99.90;;;;;;5093323;28;20624;-56
2021/12/03 03:11:07;;;;;;;33.53;20.67;;;3.80;99.90;;;;;;5092957;28;20298;-59
2021/12/03 03:13:35;;;;;;;31.07;19.07;;;3.80;99.90;;;;;;5092921;28;20204;-56
2021/12/03 03:16:03;;;;;;;36.00;20.77;;;3.80;99.90;;;;;;5092967;28;20568;-57
2021/12/03 03:18:30;;;;;;;35.60;20.97;;;3.70;99.90;;;;;;5092920;28;20208;-59
2021/12/03 03:20:59;;;;;;;36.13;18.60;;;3.80;99.90;;;;;;5092998;28;20192;-56
2021/12/03 03:23:26;;;;;;;35.70;20.63;;;3.90;99.90;;;;;;5092738;28;20204;-56
2021/12/03 03:25:55;;;;;;;35.73;20.50;;;3.90;99.90;;;;;;5093183;28;20196;-57
2021/12/03 03:28:23;;;;;;;39.07;22.83;;;4.00;99.90;;;;;;5092680;28;20538;-57
2021/12/03 03:30:54;;;;;;;43.80;22.17;;;4.00;99.90;;;;;;5092605;28;20283;-55
2021/12/03 03:33:22;;;;;;;39.07;21.47;;;4.00;99.90;;;;;;5092469;28;20196;-56
2021/12/03 03:35:49;;;;;;;39.93;21.97;;;4.00;99.90;;;;;;5092233;28;20236;-58
2021/12/03 03:38:17;;;;;;;41.80;24.60;;;3.90;99.90;;;;;;5092606;28;20200;-55
2021/12/03 03:40:44;;;;;;;38.43;20.93;;;3.90;99.90;;;;;;5092223;28;20204;-57
2021/12/03 03:43:11;;;;;;;42.20;22.40;;;3.90;99.90;;;;;;5092629;28;20200;-54
2021/12/03 03:45:39;;;;;;;34.73;21.10;;;3.90;99.90;;;;;;5092977;28;20580;-56
2021/12/03 03:48:09;;;;;;;37.93;22.10;;;3.90;99.90;;;;;;5092296;28;20290;-57
2021/12/03 03:50:36;;;;;;;37.90;23.67;;;3.90;99.90;;;;;;5092293;28;20564;-57
2021/12/03 03:53:03;;;;;;;36.97;20.07;;;3.90;99.90;;;;;;5092175;28;20211;-56
2021/12/03 03:55:31;;;;;;;35.57;20.63;;;3.90;99.90;;;;;;5092483;28;20637;-56
2021/12/03 03:58:00;;;;;;;32.13;19.33;;;3.90;99.90;;;;;;5092569;28;20710;-55
2021/12/03 04:00:30;;;;;;;31.73;19.03;;;3.80;99.90;;;;;;5091979;28;20200;-55
2021/12/03 04:02:57;;;;;;;33.73;19.83;;;3.80;99.90;;;;;;5092326;28;20572;-57
2021/12/03 04:05:26;;;;;;;35.17;21.13;;;3.70;99.90;;;;;;5092220;28;20203;-56
2021/12/03 04:07:53;;;;;;;35.97;20.97;;;3.70;99.90;;;;;;5092301;28;20204;-60
2021/12/03 04:10:20;;;;;;;38.23;22.17;;;3.60;99.90;;;;;;5091557;28;20211;-57
2021/12/03 04:12:47;;;;;;;40.73;22.70;;;3.50;99.90;;;;;;5091601;28;20200;-55
2021/12/03 04:15:15;;;;;;;37.13;23.03;;;3.50;99.90;;;;;;5092008;28;20589;-58
2021/12/03 04:17:42;;;;;;;38.63;22.50;;;3.50;99.90;;;;;;5091676;28;20204;-56
2021/12/03 04:20:11;;;;;;;38.07;22.27;;;3.50;99.90;;;;;;5091618;28;20228;-61
2021/12/03 04:22:40;;;;;;;41.90;25.73;;;3.50;99.90;;;;;;5091875;28;20226;-56
2021/12/03 04:25:10;;;;;;;44.20;25.97;;;3.40;99.90;;;;;;5091873;28;20658;-57
2021/12/03 04:27:37;;;;;;;42.67;22.30;;;3.50;99.90;;;;;;5092078;28;20616;-57
2021/12/03 04:30:05;;;;;;;35.60;21.80;;;3.40;99.90;;;;;;5091582;28;20192;-56
2021/12/03 04:32:32;;;;;;;38.90;23.70;;;3.40;99.90;;;;;;5091754;28;20204;-57
2021/12/03 04:34:59;;;;;;;34.57;20.77;;;3.50;99.90;;;;;;5091575;28;20239;-55
2021/12/03 04:37:26;;;;;;;34.37;20.40;;;3.40;99.90;;;;;;5091693;28;20645;-56
2021/12/03 04:39:54;;;;;;;35.63;21.30;;;3.40;99.90;;;;;;5091862;28;20204;-55
2021/12/03 04:42:21;;;;;;;36.77;20.07;;;3.40;99.90;;;;;;5091655;28;20293;-56
2021/12/03 04:44:49;;;;;;;38.47;20.57;;;3.40;99.90;;;;;;5091850;28;20200;-57
2021/12/03 04:47:16;;;;;;;41.10;22.07;;;3.30;99.90;;;;;;5091657;28;20200;-57
2021/12/03 04:49:43;;;;;;;39.87;23.17;;;3.40;99.90;;;;;;5091659;28;20192;-58
2021/12/03 04:52:09;;;;;;;43.87;23.20;;;3.40;99.90;;;;;;5091523;28;20218;-55
2021/12/03 04:54:36;;;;;;;48.10;25.57;;;3.40;99.90;;;;;;5091468;28;20204;-55
2021/12/03 04:57:05;;;;;;;42.37;22.60;;;3.40;99.90;;;;;;5091287;28;20224;-56
2021/12/03 04:59:32;;;;;;;40.03;22.77;;;3.50;99.90;;;;;;5091762;28;20203;-57
2021/12/03 05:01:59;;;;;;;35.13;20.60;;;3.50;99.90;;;;;;5091545;28;20677;-54
2021/12/03 05:04:26;;;;;;;35.93;21.97;;;3.50;99.90;;;;;;5091525;28;20196;-56
2021/12/03 05:06:55;;;;;;;38.93;22.40;;;3.60;99.90;;;;;;5090458;28;20227;-56
2021/12/03 05:09:23;;;;;;;37.90;22.70;;;3.60;99.90;;;;;;5091688;28;20632;-59
2021/12/03 05:11:50;;;;;;;35.90;21.27;;;3.60;99.90;;;;;;5090995;28;20208;-58
2021/12/03 05:14:19;;;;;;;41.43;22.77;;;3.50;99.90;;;;;;5091521;28;20200;-56
2021/12/03 05:16:48;;;;;;;42.40;23.47;;;3.60;99.90;;;;;;5091437;28;20227;-58
2021/12/03 05:19:15;;;;;;;37.90;22.43;;;3.60;99.90;;;;;;5091455;28;20277;-55
2021/12/03 05:21:42;;;;;;;34.17;20.60;;;3.60;99.90;;;;;;5091262;28;20212;-58
2021/12/03 05:24:09;;;;;;;37.30;20.97;;;3.60;99.90;;;;;;5092608;28;20200;-58
2021/12/03 05:26:37;;;;;;;31.30;19.63;;;3.60;99.90;;;;;;5095234;28;20200;-55
2021/12/03 05:29:05;;;;;;;32.13;19.13;;;3.60;99.90;;;;;;5095131;28;20652;-57
2021/12/03 05:31:34;;;;;;;37.60;18.73;;;3.70;99.90;;;;;;5095083;28;20204;-57
2021/12/03 05:34:02;;;;;;;31.27;19.10;;;3.70;99.90;;;;;;5094710;28;20200;-57
2021/12/03 05:36:29;;;;;;;32.80;20.33;;;3.80;99.90;;;;;;5095276;28;20619;-56
2021/12/03 05:38:56;;;;;;;28.87;18.00;;;3.80;99.90;;;;;;5094668;28;20269;-55
2021/12/03 05:41:23;;;;;;;30.07;17.97;;;3.80;99.90;;;;;;5095125;28;20561;-57
2021/12/03 05:43:50;;;;;;;32.53;17.57;;;3.80;99.90;;;;;;5094634;28;20207;-58
2021/12/03 05:46:17;;;;;;;33.07;16.60;;;3.80;99.90;;;;;;5094587;28;20211;-58
2021/12/03 05:48:45;;;;;;;28.97;16.40;;;3.90;99.90;;;;;;5094626;28;20514;-54
2021/12/03 05:51:12;;;;;;;31.70;18.77;;;3.90;99.90;;;;;;5094364;28;20204;-55
2021/12/03 05:53:38;;;;;;;33.90;19.13;;;4.00;99.90;;;;;;5094561;28;20204;-59
2021/12/03 05:56:06;;;;;;;32.40;17.23;;;4.00;99.90;;;;;;5094251;28;20231;-58
2021/12/03 05:58:32;;;;;;;33.30;20.13;;;4.00;99.90;;;;;;5094466;28;20676;-56
2021/12/03 06:00:59;;;;;;;39.97;21.50;;;4.10;99.90;;;;;;5094473;28;20211;-58
2021/12/03 06:03:26;;;;;;;39.07;21.03;;;4.10;99.90;;;;;;5094327;28;20204;-55
2021/12/03 06:05:54;;;;;;;34.97;20.70;;;4.00;99.90;;;;;;5093845;28;20206;-56
2021/12/03 06:08:21;;;;;;;31.70;19.90;;;4.00;99.90;;;;;;5094046;28;20302;-56
2021/12/03 06:10:48;;;;;;;32.57;19.70;;;4.00;99.90;;;;;;5094029;28;20286;-55
2021/12/03 06:13:15;;;;;;;35.43;19.70;;;4.10;99.90;;;;;;5094097;28;20207;-56
2021/12/03 06:15:42;;;;;;;34.27;20.23;;;4.10;99.90;;;;;;5093783;28;20699;-57
2021/12/03 06:18:09;;;;;;;35.60;20.63;;;4.00;99.90;;;;;;5093655;28;20226;-56
2021/12/03 06:20:36;;;;;;;30.83;19.33;;;4.10;99.90;;;;;;5094393;28;20200;-53
2021/12/03 06:23:04;;;;;;;31.47;19.03;;;4.10;99.90;;;;;;5094214;28;20200;-57
2021/12/03 06:25:31;;;;;;;32.03;19.90;;;4.10;99.90;;;;;;5093814;28;20196;-58
2021/12/03 06:27:58;;;;;;;39.63;21.50;;;4.10;99.90;;;;;;5093684;28;20206;-54
2021/12/03 06:30:26;;;;;;;37.73;21.57;;;4.10;99.90;;;;;;5094147;28;20223;-55
2021/12/03 06:32:53;;;;;;;33.73;20.30;;;4.10;99.90;;;;;;5093980;28;20573;-57
2021/12/03 06:35:21;;;;;;;36.50;21.97;;;4.10;99.90;;;;;;5092656;28;20231;-58
2021/12/03 06:37:49;;;;;;;35.30;21.13;;;4.10;99.90;;;;;;5093781;28;20211;-56
2021/12/03 06:40:20;;;;;;;31.70;20.87;;;4.10;99.90;;;;;;5093837;28;20661;-54
2021/12/03 06:42:47;;;;;;;31.20;19.83;;;4.20;99.90;;;;;;5093795;28;20192;-58
2021/12/03 06:45:14;;;;;;;36.77;22.57;;;4.20;99.90;;;;;;5093346;28;20677;-56
2021/12/03 06:47:41;;;;;;;43.47;23.17;;;4.30;99.90;;;;;;5093704;28;20267;-57
2021/12/03 06:50:12;;;;;;;47.80;25.23;;;4.30;99.90;;;;;;5092906;28;20208;-55
2021/12/03 06:52:41;;;;;;;37.83;22.60;;;4.30;99.90;;;;;;5093687;28;20328;-57
2021/12/03 06:55:11;;;;;;;38.13;22.07;;;4.30;99.90;;;;;;5093478;28;20200;-58
2021/12/03 06:57:41;;;;;;;35.00;21.87;;;4.30;99.90;;;;;;5093403;28;20682;-59
2021/12/03 07:00:10;;;;;;;33.57;21.77;;;4.40;99.90;;;;;;5093606;28;20188;-57
2021/12/03 07:02:36;;;;;;;42.93;24.13;;;4.40;99.90;;;;;;5093335;28;20204;-59
2021/12/03 07:05:04;;;;;;;34.40;21.53;;;4.40;99.90;;;;;;5093157;28;20214;-57
2021/12/03 07:07:32;;;;;;;40.80;22.77;;;4.40;99.90;;;;;;5093286;28;20573;-54
2021/12/03 07:10:00;;;;;;;38.17;22.20;;;4.40;99.90;;;;;;5092955;28;20196;-54
2021/12/03 07:12:27;;;;;;;37.27;21.43;;;4.40;99.90;;;;;;5092703;28;20206;-56
2021/12/03 07:14:55;;;;;;;37.87;25.73;;;4.40;99.90;;;;;;5092898;28;20203;-59
2021/12/03 07:17:22;;;;;;;37.10;22.40;;;4.50;99.90;;;;;;5092985;28;20250;-57
2021/12/03 07:19:48;;;;;;;36.03;21.97;;;4.50;99.90;;;;;;5093018;28;20235;-55
2021/12/03 07:22:15;;;;;;;37.37;22.67;;;4.50;99.90;;;;;;5093076;28;20275;-56
2021/12/03 07:24:42;;;;;;;42.60;23.57;;;4.60;99.90;;;;;;5092700;28;20580;-57
2021/12/03 07:27:09;;;;;;;35.37;21.83;;;4.60;99.90;;;;;;5092731;28;20616;-54
2021/12/03 07:29:36;;;;;;;38.47;22.23;;;4.70;99.90;;;;;;5092885;28;20658;-56
2021/12/03 07:32:04;;;;;;;34.10;20.50;;;4.70;99.90;;;;;;5092982;28;20566;-56
2021/12/03 07:34:32;;;;;;;34.17;22.23;;;4.80;99.90;;;;;;5092171;28;20232;-58
2021/12/03 07:36:59;;;;;;;35.37;20.53;;;4.80;99.90;;;;;;5092348;28;20299;-55
2021/12/03 07:39:26;;;;;;;34.30;21.00;;;4.80;99.90;;;;;;5092843;28;20204;-54
2021/12/03 07:41:52;;;;;;;38.13;21.93;;;4.90;99.90;;;;;;5092588;28;20219;-55
2021/12/03 07:44:19;;;;;;;32.83;20.47;;;4.90;99.90;;;;;;5092495;28;20211;-58
2021/12/03 07:46:46;;;;;;;33.50;19.57;;;4.90;99.90;;;;;;5091558;28;20554;-54
2021/12/03 07:49:14;;;;;;;34.00;20.93;;;4.90;99.90;;;;;;5092716;28;20211;-56
2021/12/03 07:51:41;;;;;;;36.07;22.37;;;4.90;99.90;;;;;;5092081;28;20298;-56
2021/12/03 07:54:08;;;;;;;37.30;21.33;;;5.00;99.90;;;;;;5092547;28;20662;-58
2021/12/03 07:56:35;;;;;;;33.50;20.47;;;5.00;99.90;;;;;;5092214;28;20556;-53
2021/12/03 07:59:02;;;;;;;33.23;20.17;;;5.00;99.90;;;;;;5092626;28;20639;-57
2021/12/03 08:01:28;;;;;;;31.80;20.27;;;5.10;99.90;;;;;;5092325;28;20570;-58
2021/12/03 08:03:55;;;;;;;30.40;19.20;;;5.10;99.90;;;;;;5092474;28;20203;-56
2021/12/03 08:06:23;;;;;;;31.63;19.37;;;5.10;99.90;;;;;;5092082;28;20196;-54
2021/12/03 08:08:50;;;;;;;32.57;20.03;;;5.10;99.90;;;;;;5092327;28;20218;-56
2021/12/03 08:11:17;;;;;;;33.13;20.20;;;5.10;99.90;;;;;;5091989;28;20204;-57
2021/12/03 08:13:44;;;;;;;32.30;19.50;;;5.20;99.90;;;;;;5092060;28;20588;-57
2021/12/03 08:16:11;;;;;;;35.00;19.40;;;5.20;99.90;;;;;;5091777;28;20561;-56
2021/12/03 08:18:38;;;;;;;32.07;20.63;;;5.30;99.90;;;;;;5091681;28;20235;-54
2021/12/03 08:21:04;;;;;;;35.80;20.47;;;5.30;99.90;;;;;;5092183;28;20211;-55
2021/12/03 08:23:33;;;;;;;33.43;20.47;;;5.40;99.90;;;;;;5092044;28;20849;-57
2021/12/03 08:26:00;;;;;;;35.67;19.90;;;5.40;99.90;;;;;;5091679;28;20291;-57
2021/12/03 08:28:26;;;;;;;31.00;20.03;;;5.50;99.90;;;;;;5091613;28;20208;-55
2021/12/03 08:30:53;;;;;;;32.87;20.63;;;5.50;99.90;;;;;;5091762;28;20204;-56
2021/12/03 08:33:21;;;;;;;32.87;19.20;;;5.50;99.90;;;;;;5091640;28;20211;-57
2021/12/03 08:35:47;;;;;;;32.80;21.17;;;5.50;99.90;;;;;;5091296;28;20228;-56
2021/12/03 08:38:14;;;;;;;31.83;20.33;;;5.50;99.90;;;;;;5091900;28;20259;-58
2021/12/03 08:40:42;;;;;;;31.67;20.27;;;5.40;99.90;;;;;;5091446;28;20681;-56
2021/12/03 08:43:09;;;;;;;31.83;19.10;;;5.40;99.90;;;;;;5091426;28;20218;-56
2021/12/03 08:45:38;;;;;;;32.67;20.17;;;5.40;99.90;;;;;;5091812;28;20206;-57
2021/12/03 08:48:05;;;;;;;33.07;20.47;;;5.40;99.90;;;;;;5091796;28;20200;-57
2021/12/03 08:50:35;;;;;;;36.10;21.73;;;5.40;99.90;;;;;;5091582;28;20207;-57
2021/12/03 08:55:49;;;;;;;34.70;20.23;;;5.40;99.90;;;;;;5091698;28;20219;-59
2021/12/03 08:58:18;;;;;;;40.13;22.73;;;5.40;99.90;;;;;;5092779;28;20224;-56
2021/12/03 09:00:45;;;;;;;39.07;22.07;;;5.40;99.90;;;;;;5095578;28;20224;-58
2021/12/03 09:03:12;;;;;;;37.37;21.60;;;5.50;99.90;;;;;;5096034;28;20203;-57
2021/12/03 09:05:40;;;;;;;32.47;21.40;;;5.50;99.90;;;;;;5095669;28;20210;-56
2021/12/03 09:08:06;;;;;;;36.57;21.50;;;5.50;99.90;;;;;;5095945;28;20195;-57
2021/12/03 09:10:34;;;;;;;40.20;24.20;;;5.50;99.90;;;;;;5095235;28;20484;-57
2021/12/03 09:13:03;;;;;;;48.43;27.87;;;5.50;99.90;;;;;;5095306;28;20302;-56
2021/12/03 09:15:37;;;;;;;51.73;29.30;;;5.40;99.90;;;;;;5095441;28;20563;-59
2021/12/03 09:20:56;;;;;;;52.17;29.77;;;5.30;99.90;;;;;;5075484;28;20623;-55
2021/12/03 09:23:31;;;;;;;54.07;31.33;;;5.30;99.90;;;;;;5074743;28;20227;-58
2021/12/03 09:26:05;;;;;;;53.30;29.97;;;5.20;99.90;;;;;;5074894;28;20196;-59
2021/12/03 09:28:35;;;;;;;50.33;30.17;;;5.10;99.90;;;;;;5076565;28;20196;-54
2021/12/03 09:31:02;;;;;;;56.03;30.63;;;5.10;99.90;;;;;;5095371;28;20218;-58
2021/12/03 09:33:29;;;;;;;49.23;29.93;;;5.10;99.90;;;;;;5094994;28;20554;-56
2021/12/03 09:36:01;;;;;;;55.33;31.03;;;5.00;99.90;;;;;;5094220;28;20259;-57
2021/12/03 09:38:31;;;;;;;53.03;33.20;;;4.90;99.90;;;;;;5094950;28;20719;-58
2021/12/03 09:41:05;;;;;;;51.63;29.50;;;4.80;99.90;;;;;;5095278;28;20199;-56
2021/12/03 09:43:35;;;;;;;48.83;30.67;;;4.70;99.90;;;;;;5094640;28;20603;-57
2021/12/03 09:46:08;;;;;;;44.77;26.70;;;4.50;99.90;;;;;;5094906;28;20204;-59
2021/12/03 09:48:46;;;;;;;38.80;23.73;;;4.30;99.90;;;;;;5094473;28;20184;-56
2021/12/03 09:51:13;;;;;;;37.47;21.87;;;4.30;99.90;;;;;;5094756;28;20184;-58
2021/12/03 09:54:06;;;;;;;27.80;18.97;;;4.20;99.90;;;;;;5094869;28;20204;-56
2021/12/03 09:56:33;;;;;;;29.63;17.60;;;4.10;99.90;;;;;;5094846;28;20609;-59
2021/12/03 10:01:46;;;;;;;26.77;16.07;;;4.00;99.90;;;;;;5049147;28;20196;-56
2021/12/03 10:04:34;;;;;;;22.47;14.67;;;3.90;99.90;;;;;;5094059;28;20215;-56
2021/12/03 10:10:28;;;;;;;21.93;13.73;;;3.80;99.90;;;;;;5093261;28;20683;-57
2021/12/03 10:13:08;;;;;;;18.57;10.70;;;3.70;99.90;;;;;;5094346;28;20707;-56
2021/12/03 10:15:49;;;;;;;15.57;10.70;;;3.70;99.90;;;;;;5094179;28;20192;-55
2021/12/03 10:18:31;;;;;;;16.23;11.70;;;3.60;99.90;;;;;;5094268;28;20318;-56
2021/12/03 10:21:03;;;;;;;18.30;11.00;;;3.50;99.90;;;;;;5087319;28;20207;-56
2021/12/03 10:29:26;;;;;;;16.70;10.50;;;3.50;99.90;;;;;;5106214;27;20545;-55
2021/12/03 10:46:21;;;;;;;10.33;7.37;;;3.50;99.90;;;;;;5086304;28;20615;-56
2021/12/03 10:48:56;;;;;;;11.23;7.67;;;3.40;99.90;;;;;;5097009;28;20280;-55
2021/12/03 10:51:38;;;;;;;9.57;6.63;;;3.40;99.90;;;;;;5108795;28;20248;-56
2021/12/03 10:54:11;;;;;;;7.93;5.77;;;3.30;99.90;;;;;;5104735;28;20195;-55
2021/12/03 10:59:45;;;;;;;7.27;5.60;;;3.10;99.90;;;;;;5109045;28;20175;-56
2021/12/03 11:11:22;;;;;;;8.53;4.80;;;2.80;99.90;;;;;;5062482;28;20575;-58
2021/12/03 11:42:45;;;;;;;5.70;4.47;;;2.50;99.90;;;;;;5067017;28;20217;-56
2021/12/03 12:25:57;;;;;;;4.47;3.67;;;2.30;99.90;;;;;;5026521;28;20693;-56
2021/12/03 13:20:20;;;;;;;6.50;4.80;;;2.40;99.90;;;;;;5107895;28;20207;-62
2021/12/03 13:29:14;;;;;;;8.50;4.97;;;2.30;99.90;;;;;;5108731;28;20310;-63
2021/12/03 14:00:02;;;;;;;7.03;5.77;;;2.30;99.90;;;;;;5031916;28;20198;-62
2021/12/03 14:36:28;;;;;;;11.77;8.20;;;2.30;99.90;;;;;;5093547;28;20199;-63
2021/12/03 14:39:22;;;;;;;12.03;8.27;;;2.30;99.90;;;;;;5093807;28;20200;-61
2021/12/03 14:42:07;;;;;;;11.67;8.07;;;2.30;99.90;;;;;;5092658;28;20646;-62
2021/12/03 14:44:56;;;;;;;14.87;9.97;;;2.30;99.90;;;;;;5082284;28;20195;-62
2021/12/03 14:50:39;;;;;;;13.87;8.97;;;2.30;99.90;;;;;;5052693;28;20212;-62
2021/12/03 14:56:02;;;;;;;10.80;7.77;;;2.20;99.90;;;;;;5051049;28;20290;-61
2021/12/03 14:58:35;;;;;;;11.93;7.77;;;2.20;99.90;;;;;;5076612;28;20187;-62
2021/12/03 15:01:12;;;;;;;11.57;8.07;;;2.20;99.90;;;;;;5093430;28;20199;-62
2021/12/03 15:06:34;;;;;;;12.07;8.73;;;2.20;99.90;;;;;;5086769;28;20679;-63
2021/12/03 15:09:07;;;;;;;13.77;9.60;;;2.20;99.90;;;;;;5093361;28;20191;-63
2021/12/03 15:25:29;;;;;;;14.13;10.57;;;2.30;99.90;;;;;;5092942;28;20571;-63
2021/12/03 15:28:40;;;;;;;15.23;10.70;;;2.30;99.90;;;;;;5093083;28;20191;-66
2021/12/03 15:31:20;;;;;;;17.63;10.60;;;2.40;99.90;;;;;;5093091;28;20667;-63
2021/12/03 15:33:52;;;;;;;14.77;10.10;;;2.40;99.90;;;;;;5091383;28;20192;-63
2021/12/03 15:36:26;;;;;;;28.00;14.97;;;2.40;99.90;;;;;;5092937;28;20192;-63
2021/12/03 15:58:31;;;;;;;12.73;9.50;;;2.30;99.90;;;;;;5071740;28;20192;-67
2021/12/03 16:03:58;;;;;;;13.10;9.43;;;2.30;99.90;;;;;;5095033;28;20272;-65
2021/12/03 16:06:31;;;;;;;14.13;9.10;;;2.30;99.90;;;;;;5092129;28;20198;-65
2021/12/03 16:09:07;;;;;;;14.63;10.10;;;2.30;99.90;;;;;;5091725;28;20575;-65
2021/12/03 16:11:42;;;;;;;13.10;8.70;;;2.30;99.90;;;;;;5103789;28;20225;-67
2021/12/03 16:17:14;;;;;;;12.57;8.87;;;2.40;99.90;;;;;;5089677;28;20275;-66
2021/12/03 16:22:33;;;;;;;14.30;9.70;;;2.30;99.90;;;;;;5091438;28;20264;-65
2021/12/03 16:44:24;;;;;;;13.50;9.43;;;2.10;99.90;;;;;;5092327;28;20224;-65
2021/12/03 16:46:58;;;;;;;15.90;10.33;;;2.10;99.90;;;;;;5102620;28;20250;-64
2021/12/03 16:50:01;;;;;;;17.37;10.53;;;2.10;99.90;;;;;;5091753;28;20228;-64
2021/12/03 16:52:30;;;;;;;17.70;10.87;;;2.10;99.90;;;;;;5071408;28;20240;-65
2021/12/03 16:54:58;;;;;;;15.47;10.77;;;2.20;99.90;;;;;;5071645;28;20231;-65
2021/12/03 16:57:29;;;;;;;15.70;10.40;;;2.20;99.90;;;;;;5071486;28;20205;-65
2021/12/03 16:59:57;;;;;;;17.63;11.40;;;2.20;99.90;;;;;;5071388;28;20218;-64
2021/12/03 17:02:32;;;;;;;17.97;11.27;;;2.30;99.90;;;;;;5073139;28;20207;-67
2021/12/03 17:05:17;;;;;;;19.33;12.13;;;2.30;99.90;;;;;;5091804;28;20701;-67
2021/12/03 17:51:56;;;;;;;25.80;15.10;;;2.10;99.90;;;;;;5081549;28;20282;-68
2021/12/03 17:54:40;;;;;;;22.50;14.00;;;2.10;99.90;;;;;;5094776;28;20207;-68
2021/12/03 17:57:12;;;;;;;21.33;13.63;;;2.10;99.90;;;;;;5094786;28;20575;-68
2021/12/03 17:59:42;;;;;;;25.87;15.13;;;2.10;99.90;;;;;;5094899;28;20196;-64
2021/12/03 18:02:17;;;;;;;24.23;14.50;;;2.10;99.90;;;;;;5093861;28;20687;-65
2021/12/03 18:07:33;;;;;;;22.83;14.50;;;2.00;99.90;;;;;;5081865;28;20192;-67
2021/12/03 18:43:30;;;;;;;22.10;13.20;;;1.70;99.90;;;;;;5093522;28;20739;-68
2021/12/03 18:46:18;;;;;;;20.30;12.30;;;1.60;99.90;;;;;;5092641;28;20192;-64
2021/12/03 18:48:55;;;;;;;19.10;13.67;;;1.60;99.90;;;;;;5093050;28;20196;-65
2021/12/03 18:51:29;;;;;;;22.23;13.50;;;1.60;99.90;;;;;;5093810;28;20655;-66
2021/12/03 18:54:18;;;;;;;22.23;13.67;;;1.50;99.90;;;;;;5093178;28;20215;-67
2021/12/03 18:56:47;;;;;;;19.77;12.77;;;1.50;99.90;;;;;;5094106;28;20737;-67
2021/12/03 18:59:14;;;;;;;23.53;14.13;;;1.50;99.90;;;;;;5093441;28;20204;-65
2021/12/03 19:01:43;;;;;;;23.53;14.00;;;1.50;99.90;;;;;;5093326;28;20676;-65
2021/12/03 19:04:20;;;;;;;24.73;14.37;;;1.40;99.90;;;;;;5093233;28;20211;-66
2021/12/03 19:06:51;;;;;;;24.57;15.03;;;1.40;99.90;;;;;;5081078;28;20201;-64
2021/12/03 19:09:22;;;;;;;23.30;14.70;;;1.40;99.90;;;;;;5092019;28;20188;-66
2021/12/03 19:11:56;;;;;;;25.63;15.97;;;1.30;99.90;;;;;;5093098;28;20192;-63
2021/12/03 19:14:23;;;;;;;22.53;14.30;;;1.30;99.90;;;;;;5092562;28;20254;-66